createdAt,value
2018-02-13T00:00:54.598Z,1022.47
2018-02-13T00:01:54.585Z,1022.5
2018-02-13T00:02:54.591Z,1022.47
2018-02-13T00:03:54.588Z,1022.51
2018-02-13T00:04:54.635Z,1022.5
2018-02-13T00:05:54.674Z,1022.5
2018-02-13T00:06:54.586Z,1022.49
2018-02-13T00:07:54.651Z,1022.5
2018-02-13T00:08:54.597Z,1022.46
2018-02-13T00:12:54.695Z,1022.49
2018-02-13T00:13:54.990Z,1022.52
2018-02-13T00:14:55.555Z,1022.47
2018-02-13T00:15:54.551Z,1022.49
2018-02-13T00:16:54.529Z,1022.48
2018-02-13T00:17:54.536Z,1022.46
2018-02-13T00:18:54.535Z,1022.49
2018-02-13T00:19:54.538Z,1022.5
2018-02-13T00:20:54.819Z,1022.51
2018-02-13T00:21:54.609Z,1022.46
2018-02-13T00:22:54.533Z,1022.49
2018-02-13T00:23:54.534Z,1022.49
2018-02-13T00:24:54.535Z,1022.47
2018-02-13T00:25:54.538Z,1022.49
2018-02-13T00:26:54.535Z,1022.52
2018-02-13T00:27:54.593Z,1022.5
2018-02-13T00:28:54.544Z,1022.52
2018-02-13T00:29:54.531Z,1022.51
2018-02-13T00:30:54.534Z,1022.49
2018-02-13T00:31:54.537Z,1022.53
2018-02-13T00:32:54.601Z,1022.47
2018-02-13T00:33:54.861Z,1022.44
2018-02-13T00:34:54.538Z,1022.45
2018-02-13T00:35:54.969Z,1022.48
2018-02-13T00:36:54.542Z,1022.44
2018-02-13T00:37:54.540Z,1022.45
2018-02-13T00:38:54.544Z,1022.47
2018-02-13T00:39:54.643Z,1022.43
2018-02-13T00:40:54.547Z,1022.44
2018-02-13T00:41:54.676Z,1022.49
2018-02-13T00:42:54.868Z,1022.46
2018-02-13T00:43:54.667Z,1022.44
2018-02-13T00:44:54.546Z,1022.43
2018-02-13T00:45:54.536Z,1022.44
2018-02-13T00:46:54.443Z,1022.43
2018-02-13T00:47:54.444Z,1022.39
2018-02-13T00:48:54.453Z,1022.44
2018-02-13T00:49:54.456Z,1022.39
2018-02-13T00:50:54.443Z,1022.42
2018-02-13T00:51:54.445Z,1022.41
2018-02-13T00:52:54.453Z,1022.4
2018-02-13T00:53:54.448Z,1022.42
2018-02-13T00:54:54.488Z,1022.38
2018-02-13T00:55:54.459Z,1022.41
2018-02-13T00:56:54.451Z,1022.36
2018-02-13T00:57:54.447Z,1022.38
2018-02-13T00:58:54.456Z,1022.38
2018-02-13T00:59:54.695Z,1022.39
2018-02-13T01:00:54.460Z,1022.36
2018-02-13T01:01:54.473Z,1022.4
2018-02-13T01:02:54.446Z,1022.37
2018-02-13T01:03:54.452Z,1022.37
2018-02-13T01:04:54.467Z,1022.4
2018-02-13T01:05:54.458Z,1022.4
2018-02-13T01:06:54.465Z,1022.43
2018-02-13T01:07:54.464Z,1022.42
2018-02-13T01:08:54.465Z,1022.41
2018-02-13T01:09:54.463Z,1022.42
2018-02-13T01:10:54.474Z,1022.42
2018-02-13T01:11:54.451Z,1022.39
2018-02-13T01:12:54.452Z,1022.36
2018-02-13T01:13:54.461Z,1022.4
2018-02-13T01:14:54.459Z,1022.38
2018-02-13T01:15:54.477Z,1022.4
2018-02-13T01:16:54.468Z,1022.35
2018-02-13T01:17:54.302Z,1022.38
2018-02-13T01:18:54.309Z,1022.36
2018-02-13T01:19:54.315Z,1022.4
2018-02-13T01:20:54.339Z,1022.39
2018-02-13T01:21:54.371Z,1022.4
2018-02-13T01:22:54.309Z,1022.42
2018-02-13T01:23:54.314Z,1022.39
2018-02-13T01:24:54.316Z,1022.35
2018-02-13T01:25:54.312Z,1022.34
2018-02-13T01:26:54.314Z,1022.37
2018-02-13T01:27:54.309Z,1022.38
2018-02-13T01:28:54.315Z,1022.3
2018-02-13T01:29:54.305Z,1022.3
2018-02-13T01:30:54.309Z,1022.34
2018-02-13T01:31:54.315Z,1022.27
2018-02-13T01:32:54.433Z,1022.28
2018-02-13T01:33:54.748Z,1022.29
2018-02-13T01:34:54.318Z,1022.29
2018-02-13T01:35:55.294Z,1022.27
2018-02-13T01:36:54.330Z,1022.28
2018-02-13T01:37:54.311Z,1022.28
2018-02-13T01:38:54.320Z,1022.29
2018-02-13T01:42:06.335Z,1022.21
2018-02-13T01:42:54.315Z,1022.23
2018-02-13T01:43:54.512Z,1022.25
2018-02-13T01:44:54.315Z,1022.22
2018-02-13T01:45:54.319Z,1022.25
2018-02-13T01:46:54.316Z,1022.27
2018-02-13T01:47:54.323Z,1022.22
2018-02-13T01:48:54.159Z,1022.23
2018-02-13T01:49:54.177Z,1022.22
2018-02-13T01:50:54.163Z,1022.29
2018-02-13T01:51:54.252Z,1022.25
2018-02-13T01:52:54.157Z,1022.26
2018-02-13T01:53:54.270Z,1022.28
2018-02-13T01:54:54.217Z,1022.25
2018-02-13T01:55:54.158Z,1022.25
2018-02-13T01:56:54.161Z,1022.31
2018-02-13T01:57:54.170Z,1022.28
2018-02-13T02:00:27.942Z,1022.3
2018-02-13T02:00:54.326Z,1022.25
2018-02-13T02:01:54.406Z,1022.27
2018-02-13T02:02:54.167Z,1022.3
2018-02-13T02:03:54.174Z,1022.25
2018-02-13T02:04:54.175Z,1022.29
2018-02-13T02:05:54.164Z,1022.29
2018-02-13T02:06:54.167Z,1022.28
2018-02-13T02:07:54.160Z,1022.31
2018-02-13T02:08:54.579Z,1022.26
2018-02-13T02:09:54.318Z,1022.29
2018-02-13T02:10:54.167Z,1022.24
2018-02-13T02:11:54.164Z,1022.27
2018-02-13T02:12:54.348Z,1022.3
2018-02-13T02:13:54.162Z,1022.27
2018-02-13T02:14:54.302Z,1022.26
2018-02-13T02:15:54.161Z,1022.3
2018-02-13T02:16:54.182Z,1022.29
2018-02-13T02:17:54.178Z,1022.27
2018-02-13T02:18:54.168Z,1022.23
2018-02-13T02:19:54.126Z,1022.29
2018-02-13T02:20:54.082Z,1022.3
2018-02-13T02:21:54.076Z,1022.29
2018-02-13T02:22:54.095Z,1022.29
2018-02-13T02:23:54.097Z,1022.25
2018-02-13T02:24:54.090Z,1022.26
2018-02-13T02:25:54.129Z,1022.27
2018-02-13T02:26:54.082Z,1022.25
2018-02-13T02:27:54.092Z,1022.25
2018-02-13T02:28:54.104Z,1022.22
2018-02-13T02:29:54.095Z,1022.22
2018-02-13T02:30:54.102Z,1022.21
2018-02-13T02:31:54.089Z,1022.22
2018-02-13T02:32:54.088Z,1022.14
2018-02-13T02:33:54.089Z,1022.16
2018-02-13T02:34:54.100Z,1022.12
2018-02-13T02:35:54.102Z,1022.12
2018-02-13T02:36:54.085Z,1022.12
2018-02-13T02:37:54.081Z,1022.13
2018-02-13T02:38:54.085Z,1022.12
2018-02-13T02:39:54.094Z,1022.12
2018-02-13T02:40:54.106Z,1022.13
2018-02-13T02:41:54.107Z,1022.13
2018-02-13T02:42:54.097Z,1022.14
2018-02-13T02:43:54.114Z,1022.1
2018-02-13T02:44:54.094Z,1022.07
2018-02-13T02:45:54.114Z,1022.11
2018-02-13T02:46:54.085Z,1022.07
2018-02-13T02:47:54.110Z,1022.06
2018-02-13T02:48:54.097Z,1022.07
2018-02-13T02:49:54.110Z,1022.08
2018-02-13T02:50:53.972Z,1022.02
2018-02-13T02:51:53.961Z,1022.05
2018-02-13T02:52:53.966Z,1022.01
2018-02-13T02:53:53.961Z,1022.01
2018-02-13T02:54:53.964Z,1022
2018-02-13T02:55:54.146Z,1021.99
2018-02-13T02:56:53.949Z,1022.04
2018-02-13T02:57:53.952Z,1022
2018-02-13T02:58:53.955Z,1021.97
2018-02-13T02:59:53.959Z,1022.02
2018-02-13T03:00:53.978Z,1021.98
2018-02-13T03:01:53.951Z,1022
2018-02-13T03:02:53.961Z,1021.95
2018-02-13T03:03:53.960Z,1021.99
2018-02-13T03:04:53.960Z,1021.98
2018-02-13T03:05:53.975Z,1021.99
2018-02-13T03:06:53.955Z,1022.05
2018-02-13T03:07:54.095Z,1022.03
2018-02-13T03:10:20.977Z,1022.07
2018-02-13T03:10:53.944Z,1022.01
2018-02-13T03:11:53.952Z,1022
2018-02-13T03:12:53.973Z,1021.96
2018-02-13T03:13:54.019Z,1022.03
2018-02-13T03:14:53.948Z,1021.98
2018-02-13T03:15:53.955Z,1021.94
2018-02-13T03:16:53.965Z,1021.93
2018-02-13T03:18:01.990Z,1021.94
2018-02-13T03:18:54.006Z,1021.93
2018-02-13T03:19:54.006Z,1021.93
2018-02-13T03:20:53.953Z,1021.93
2018-02-13T03:21:53.788Z,1021.88
2018-02-13T03:22:53.782Z,1021.85
2018-02-13T03:23:53.783Z,1021.87
2018-02-13T03:24:53.779Z,1021.87
2018-02-13T03:25:53.780Z,1021.86
2018-02-13T03:26:53.789Z,1021.86
2018-02-13T03:27:53.793Z,1021.84
2018-02-13T03:28:53.786Z,1021.83
2018-02-13T03:29:53.781Z,1021.81
2018-02-13T03:30:53.809Z,1021.85
2018-02-13T03:31:53.802Z,1021.8
2018-02-13T03:32:53.825Z,1021.79
2018-02-13T03:33:53.785Z,1021.72
2018-02-13T03:34:53.791Z,1021.73
2018-02-13T03:35:53.808Z,1021.77
2018-02-13T03:36:53.804Z,1021.72
2018-02-13T03:37:53.783Z,1021.74
2018-02-13T03:38:53.821Z,1021.73
2018-02-13T03:39:53.800Z,1021.71
2018-02-13T03:40:53.800Z,1021.75
2018-02-13T03:41:53.812Z,1021.74
2018-02-13T03:42:53.794Z,1021.72
2018-02-13T03:43:53.827Z,1021.73
2018-02-13T03:44:53.813Z,1021.73
2018-02-13T03:45:53.796Z,1021.71
2018-02-13T03:46:53.809Z,1021.7
2018-02-13T03:47:53.812Z,1021.71
2018-02-13T03:48:53.831Z,1021.67
2018-02-13T03:49:53.798Z,1021.67
2018-02-13T03:50:53.804Z,1021.71
2018-02-13T03:51:53.803Z,1021.67
2018-02-13T03:52:54.626Z,1021.65
2018-02-13T03:53:54.934Z,1021.66
2018-02-13T03:54:54.637Z,1021.64
2018-02-13T03:55:54.630Z,1021.7
2018-02-13T03:56:54.625Z,1021.67
2018-02-13T03:57:54.630Z,1021.64
2018-02-13T03:58:54.657Z,1021.68
2018-02-13T03:59:54.628Z,1021.64
2018-02-13T04:00:54.642Z,1021.68
2018-02-13T04:01:54.630Z,1021.67
2018-02-13T04:02:54.645Z,1021.65
2018-02-13T04:03:54.659Z,1021.71
2018-02-13T04:04:54.636Z,1021.71
2018-02-13T04:05:54.631Z,1021.72
2018-02-13T04:06:54.638Z,1021.71
2018-02-13T04:07:54.638Z,1021.66
2018-02-13T04:08:54.645Z,1021.69
2018-02-13T04:09:54.640Z,1021.7
2018-02-13T04:10:54.640Z,1021.71
2018-02-13T04:11:54.671Z,1021.67
2018-02-13T04:12:54.642Z,1021.68
2018-02-13T04:13:54.663Z,1021.68
2018-02-13T04:14:54.630Z,1021.67
2018-02-13T04:15:54.646Z,1021.7
2018-02-13T04:16:54.650Z,1021.67
2018-02-13T04:17:54.650Z,1021.62
2018-02-13T04:18:54.679Z,1021.62
2018-02-13T04:19:54.664Z,1021.59
2018-02-13T04:20:54.647Z,1021.58
2018-02-13T04:21:54.647Z,1021.58
2018-02-13T04:22:54.479Z,1021.59
2018-02-13T04:23:54.599Z,1021.6
2018-02-13T04:24:54.479Z,1021.6
2018-02-13T04:25:54.477Z,1021.6
2018-02-13T04:26:54.489Z,1021.58
2018-02-13T04:27:54.479Z,1021.55
2018-02-13T04:28:54.500Z,1021.58
2018-02-13T04:29:54.474Z,1021.57
2018-02-13T04:30:54.479Z,1021.55
2018-02-13T04:31:54.498Z,1021.55
2018-02-13T04:32:54.489Z,1021.52
2018-02-13T04:33:54.603Z,1021.52
2018-02-13T04:34:54.481Z,1021.52
2018-02-13T04:35:54.475Z,1021.5
2018-02-13T04:36:54.482Z,1021.52
2018-02-13T04:37:54.480Z,1021.49
2018-02-13T04:38:54.505Z,1021.53
2018-02-13T04:39:54.500Z,1021.51
2018-02-13T04:40:54.760Z,1021.5
2018-02-13T04:41:54.494Z,1021.51
2018-02-13T04:42:54.498Z,1021.48
2018-02-13T04:43:54.491Z,1021.54
2018-02-13T04:44:54.494Z,1021.53
2018-02-13T04:45:54.512Z,1021.51
2018-02-13T04:46:54.487Z,1021.53
2018-02-13T04:47:54.486Z,1021.55
2018-02-13T04:48:54.488Z,1021.54
2018-02-13T04:49:54.491Z,1021.51
2018-02-13T04:50:54.507Z,1021.5
2018-02-13T04:51:54.486Z,1021.53
2018-02-13T04:52:54.490Z,1021.49
2018-02-13T04:53:54.331Z,1021.48
2018-02-13T04:54:54.327Z,1021.49
2018-02-13T04:55:54.647Z,1021.46
2018-02-13T04:56:54.328Z,1021.51
2018-02-13T04:57:54.318Z,1021.45
2018-02-13T04:58:54.329Z,1021.49
2018-02-13T04:59:54.333Z,1021.5
2018-02-13T05:00:54.368Z,1021.47
2018-02-13T05:01:54.332Z,1021.5
2018-02-13T05:02:54.346Z,1021.51
2018-02-13T05:03:54.335Z,1021.42
2018-02-13T05:04:54.342Z,1021.46
2018-02-13T05:05:54.724Z,1021.43
2018-02-13T05:06:54.332Z,1021.36
2018-02-13T05:07:54.324Z,1021.37
2018-02-13T05:08:54.330Z,1021.38
2018-02-13T05:09:54.334Z,1021.37
2018-02-13T05:10:54.370Z,1021.35
2018-02-13T05:11:54.336Z,1021.31
2018-02-13T05:12:54.337Z,1021.33
2018-02-13T05:13:54.349Z,1021.3
2018-02-13T05:14:54.336Z,1021.33
2018-02-13T05:15:54.339Z,1021.32
2018-02-13T05:16:54.342Z,1021.33
2018-02-13T05:17:54.375Z,1021.34
2018-02-13T05:18:54.355Z,1021.3
2018-02-13T05:19:54.338Z,1021.37
2018-02-13T05:20:54.354Z,1021.3
2018-02-13T05:21:54.348Z,1021.32
2018-02-13T05:22:54.355Z,1021.31
2018-02-13T05:23:54.342Z,1021.28
2018-02-13T05:24:54.184Z,1021.3
2018-02-13T05:25:54.200Z,1021.31
2018-02-13T05:26:54.188Z,1021.27
2018-02-13T05:28:54.186Z,1021.33
2018-02-13T05:29:54.189Z,1021.31
2018-02-13T05:30:54.186Z,1021.31
2018-02-13T05:31:54.170Z,1021.31
2018-02-13T05:32:54.210Z,1021.31
2018-02-13T05:33:54.227Z,1021.29
2018-02-13T05:34:54.188Z,1021.31
2018-02-13T05:35:54.177Z,1021.33
2018-02-13T05:36:54.188Z,1021.29
2018-02-13T05:37:54.213Z,1021.3
2018-02-13T05:38:54.194Z,1021.29
2018-02-13T05:39:54.188Z,1021.29
2018-02-13T05:40:54.198Z,1021.29
2018-02-13T05:41:54.192Z,1021.31
2018-02-13T05:42:54.207Z,1021.27
2018-02-13T05:43:54.183Z,1021.3
2018-02-13T05:44:54.191Z,1021.3
2018-02-13T05:45:54.189Z,1021.31
2018-02-13T05:46:54.202Z,1021.25
2018-02-13T05:47:54.191Z,1021.24
2018-02-13T05:48:54.216Z,1021.24
2018-02-13T05:49:54.215Z,1021.23
2018-02-13T05:50:54.194Z,1021.26
2018-02-13T05:51:54.193Z,1021.28
2018-02-13T05:52:54.200Z,1021.27
2018-02-13T05:53:54.194Z,1021.28
2018-02-13T05:54:54.210Z,1021.27
2018-02-13T05:55:54.083Z,1021.27
2018-02-13T05:56:54.077Z,1021.23
2018-02-13T06:00:22.096Z,1021.24
2018-02-13T06:00:54.094Z,1021.21
2018-02-13T06:01:54.185Z,1021.22
2018-02-13T06:02:54.124Z,1021.21
2018-02-13T06:03:54.077Z,1021.24
2018-02-13T06:04:54.076Z,1021.2
2018-02-13T06:05:54.076Z,1021.21
2018-02-13T06:06:54.156Z,1021.16
2018-02-13T06:07:54.077Z,1021.13
2018-02-13T06:08:54.086Z,1021.16
2018-02-13T06:09:54.087Z,1021.19
2018-02-13T06:10:54.095Z,1021.18
2018-02-13T06:11:54.094Z,1021.21
2018-02-13T06:12:54.094Z,1021.19
2018-02-13T06:13:54.079Z,1021.2
2018-02-13T06:14:54.078Z,1021.17
2018-02-13T06:15:54.081Z,1021.18
2018-02-13T06:16:54.073Z,1021.16
2018-02-13T06:17:54.076Z,1021.15
2018-02-13T06:18:54.083Z,1021.13
2018-02-13T06:19:54.112Z,1021.13
2018-02-13T06:20:54.122Z,1021.15
2018-02-13T06:21:54.074Z,1021.13
2018-02-13T06:22:54.078Z,1021.16
2018-02-13T06:23:54.080Z,1021.14
2018-02-13T06:24:54.102Z,1021.17
2018-02-13T06:25:54.079Z,1021.15
2018-02-13T06:26:53.931Z,1021.18
2018-02-13T06:27:53.905Z,1021.17
2018-02-13T06:28:53.924Z,1021.2
2018-02-13T06:29:53.922Z,1021.17
2018-02-13T06:30:53.929Z,1021.2
2018-02-13T06:31:53.927Z,1021.15
2018-02-13T06:32:53.925Z,1021.19
2018-02-13T06:33:53.927Z,1021.18
2018-02-13T06:34:53.932Z,1021.17
2018-02-13T06:35:53.921Z,1021.13
2018-02-13T06:36:53.924Z,1021.13
2018-02-13T06:37:53.933Z,1021.16
2018-02-13T06:38:54.055Z,1021.13
2018-02-13T06:39:53.988Z,1021.19
2018-02-13T06:40:53.928Z,1021.17
2018-02-13T06:41:53.926Z,1021.14
2018-02-13T06:42:53.985Z,1021.19
2018-02-13T06:43:53.932Z,1021.13
2018-02-13T06:44:53.957Z,1021.14
2018-02-13T06:45:53.933Z,1021.12
2018-02-13T06:46:53.933Z,1021.22
2018-02-13T06:47:53.929Z,1021.15
2018-02-13T06:48:53.936Z,1021.18
2018-02-13T06:49:53.944Z,1021.15
2018-02-13T06:50:53.939Z,1021.11
2018-02-13T06:51:53.927Z,1021.16
2018-02-13T06:52:53.935Z,1021.14
2018-02-13T06:53:53.942Z,1021.15
2018-02-13T06:54:53.922Z,1021.15
2018-02-13T06:55:53.924Z,1021.14
2018-02-13T06:56:54.042Z,1021.13
2018-02-13T06:57:53.864Z,1021.14
2018-02-13T06:58:53.928Z,1021.08
2018-02-13T06:59:53.878Z,1021.11
2018-02-13T07:00:53.892Z,1021.11
2018-02-13T07:01:53.899Z,1021.1
2018-02-13T07:02:53.866Z,1021.1
2018-02-13T07:03:53.869Z,1021.14
2018-02-13T07:04:53.875Z,1021.11
2018-02-13T07:05:53.867Z,1021.11
2018-02-13T07:06:53.870Z,1021.11
2018-02-13T07:07:53.873Z,1021.08
2018-02-13T07:08:53.883Z,1021.11
2018-02-13T07:09:53.863Z,1021.15
2018-02-13T07:10:53.871Z,1021.14
2018-02-13T07:11:53.867Z,1021.12
2018-02-13T07:12:53.877Z,1021.11
2018-02-13T07:13:53.866Z,1021.12
2018-02-13T07:14:53.869Z,1021.07
2018-02-13T07:15:53.876Z,1021.08
2018-02-13T07:16:53.895Z,1021.09
2018-02-13T07:17:53.878Z,1021.11
2018-02-13T07:18:53.877Z,1021.11
2018-02-13T07:19:53.879Z,1021.08
2018-02-13T07:20:53.890Z,1021.13
2018-02-13T07:21:53.895Z,1021.09
2018-02-13T07:22:53.882Z,1021.07
2018-02-13T07:23:53.885Z,1021.1
2018-02-13T07:24:53.888Z,1021.09
2018-02-13T07:25:53.868Z,1021.08
2018-02-13T07:26:53.880Z,1021.09
2018-02-13T07:27:53.873Z,1021.07
2018-02-13T07:28:53.749Z,1021.1
2018-02-13T07:29:53.762Z,1021.02
2018-02-13T07:30:53.743Z,1021.04
2018-02-13T07:31:53.752Z,1021.04
2018-02-13T07:32:53.753Z,1021.06
2018-02-13T07:33:53.751Z,1021.01
2018-02-13T07:34:53.755Z,1021.03
2018-02-13T07:35:53.765Z,1021.01
2018-02-13T07:36:53.760Z,1021
2018-02-13T07:37:53.752Z,1021
2018-02-13T07:38:53.773Z,1020.97
2018-02-13T07:39:53.796Z,1020.99
2018-02-13T07:40:53.795Z,1020.94
2018-02-13T07:41:53.760Z,1020.94
2018-02-13T07:42:53.747Z,1020.95
2018-02-13T07:43:53.754Z,1020.95
2018-02-13T07:44:53.760Z,1020.97
2018-02-13T07:45:53.761Z,1020.97
2018-02-13T07:46:53.783Z,1020.97
2018-02-13T07:47:53.747Z,1020.95
2018-02-13T07:48:53.754Z,1020.94
2018-02-13T07:49:53.757Z,1020.94
2018-02-13T07:50:53.763Z,1020.98
2018-02-13T07:51:53.760Z,1020.97
2018-02-13T07:52:53.750Z,1020.94
2018-02-13T07:53:53.751Z,1020.97
2018-02-13T07:54:53.763Z,1020.96
2018-02-13T07:55:53.764Z,1020.96
2018-02-13T07:56:53.757Z,1020.96
2018-02-13T07:57:53.819Z,1020.97
2018-02-13T07:58:53.762Z,1020.99
2018-02-13T07:59:54.585Z,1020.96
2018-02-13T08:00:54.859Z,1020.93
2018-02-13T08:01:54.577Z,1020.92
2018-02-13T08:02:54.574Z,1020.98
2018-02-13T08:03:54.590Z,1020.99
2018-02-13T08:04:54.580Z,1020.93
2018-02-13T08:05:54.602Z,1020.98
2018-02-13T08:06:54.577Z,1020.94
2018-02-13T08:07:54.712Z,1020.93
2018-02-13T08:08:54.633Z,1020.91
2018-02-13T08:09:54.720Z,1020.87
2018-02-13T08:10:54.576Z,1020.85
2018-02-13T08:11:54.571Z,1020.83
2018-02-13T08:12:54.578Z,1020.79
2018-02-13T08:13:54.575Z,1020.85
2018-02-13T08:14:54.574Z,1020.82
2018-02-13T08:15:54.572Z,1020.85
2018-02-13T08:16:54.576Z,1020.8
2018-02-13T08:17:54.577Z,1020.81
2018-02-13T08:18:54.580Z,1020.84
2018-02-13T08:19:54.582Z,1020.78
2018-02-13T08:20:54.578Z,1020.81
2018-02-13T08:21:54.577Z,1020.79
2018-02-13T08:22:54.586Z,1020.78
2018-02-13T08:23:54.610Z,1020.77
2018-02-13T08:24:54.578Z,1020.75
2018-02-13T08:25:54.582Z,1020.76
2018-02-13T08:26:54.585Z,1020.73
2018-02-13T08:27:54.619Z,1020.78
2018-02-13T08:28:54.607Z,1020.75
2018-02-13T08:29:54.488Z,1020.76
2018-02-13T08:30:54.483Z,1020.74
2018-02-13T08:31:54.496Z,1020.73
2018-02-13T08:32:54.483Z,1020.73
2018-02-13T08:33:54.492Z,1020.72
2018-02-13T08:34:54.483Z,1020.73
2018-02-13T08:35:54.488Z,1020.72
2018-02-13T08:36:54.484Z,1020.7
2018-02-13T08:37:54.498Z,1020.7
2018-02-13T08:38:54.499Z,1020.68
2018-02-13T08:39:54.501Z,1020.65
2018-02-13T08:40:54.487Z,1020.66
2018-02-13T08:41:54.492Z,1020.65
2018-02-13T08:42:54.495Z,1020.67
2018-02-13T08:43:54.566Z,1020.65
2018-02-13T08:44:54.513Z,1020.65
2018-02-13T08:45:54.492Z,1020.66
2018-02-13T08:46:54.494Z,1020.63
2018-02-13T08:47:54.491Z,1020.63
2018-02-13T08:48:54.485Z,1020.61
2018-02-13T08:49:54.510Z,1020.63
2018-02-13T08:50:54.496Z,1020.61
2018-02-13T08:51:54.507Z,1020.6
2018-02-13T08:52:54.490Z,1020.62
2018-02-13T08:53:54.494Z,1020.58
2018-02-13T08:54:54.528Z,1020.55
2018-02-13T08:55:54.506Z,1020.58
2018-02-13T08:56:54.494Z,1020.55
2018-02-13T08:57:54.500Z,1020.56
2018-02-13T08:58:54.547Z,1020.49
2018-02-13T08:59:54.506Z,1020.53
2018-02-13T09:00:54.347Z,1020.49
2018-02-13T09:01:54.357Z,1020.53
2018-02-13T09:02:54.381Z,1020.54
2018-02-13T09:03:54.355Z,1020.49
2018-02-13T09:04:54.358Z,1020.47
2018-02-13T09:05:54.355Z,1020.46
2018-02-13T09:06:54.478Z,1020.47
2018-02-13T09:07:54.352Z,1020.43
2018-02-13T09:08:54.367Z,1020.46
2018-02-13T09:09:54.357Z,1020.47
2018-02-13T09:10:54.352Z,1020.45
2018-02-13T09:11:54.380Z,1020.47
2018-02-13T09:12:54.372Z,1020.42
2018-02-13T09:13:54.361Z,1020.41
2018-02-13T09:14:54.378Z,1020.42
2018-02-13T09:15:54.355Z,1020.37
2018-02-13T09:16:54.368Z,1020.39
2018-02-13T09:17:54.411Z,1020.38
2018-02-13T09:18:54.375Z,1020.37
2018-02-13T09:19:54.366Z,1020.37
2018-02-13T09:20:54.371Z,1020.39
2018-02-13T09:21:54.357Z,1020.31
2018-02-13T09:22:54.362Z,1020.31
2018-02-13T09:23:54.421Z,1020.3
2018-02-13T09:24:54.359Z,1020.27
2018-02-13T09:25:54.355Z,1020.27
2018-02-13T09:26:54.358Z,1020.25
2018-02-13T09:27:54.365Z,1020.25
2018-02-13T09:28:54.351Z,1020.19
2018-02-13T09:29:54.748Z,1020.23
2018-02-13T09:30:54.585Z,1020.2
2018-02-13T09:31:54.574Z,1020.18
2018-02-13T09:32:54.581Z,1020.15
2018-02-13T09:33:54.595Z,1020.12
2018-02-13T09:34:54.607Z,1020.13
2018-02-13T09:35:54.581Z,1020.13
2018-02-13T09:36:54.589Z,1020.15
2018-02-13T09:37:54.582Z,1020.13
2018-02-13T09:38:54.589Z,1020.17
2018-02-13T09:39:54.611Z,1020.13
2018-02-13T09:40:54.590Z,1020.11
2018-02-13T09:41:54.588Z,1020.12
2018-02-13T09:42:54.595Z,1020.11
2018-02-13T09:43:54.580Z,1020.08
2018-02-13T09:44:54.587Z,1020.06
2018-02-13T09:45:54.869Z,1020.07
2018-02-13T09:46:54.579Z,1020.04
2018-02-13T09:47:54.582Z,1020.07
2018-02-13T09:48:54.587Z,1020.03
2018-02-13T09:49:54.651Z,1020.02
2018-02-13T09:50:54.615Z,1020.05
2018-02-13T09:51:54.589Z,1019.95
2018-02-13T09:52:54.583Z,1019.97
2018-02-13T09:53:54.584Z,1019.96
2018-02-13T09:54:54.590Z,1019.97
2018-02-13T09:55:54.627Z,1019.96
2018-02-13T09:56:54.608Z,1019.91
2018-02-13T09:57:54.594Z,1019.9
2018-02-13T09:58:54.582Z,1019.88
2018-02-13T09:59:54.590Z,1019.89
2018-02-13T10:00:54.626Z,1019.85
2018-02-13T10:01:54.478Z,1019.85
2018-02-13T10:02:54.449Z,1019.86
2018-02-13T10:03:54.471Z,1019.84
2018-02-13T10:04:54.462Z,1019.77
2018-02-13T10:05:54.480Z,1019.81
2018-02-13T10:06:54.464Z,1019.81
2018-02-13T10:07:54.458Z,1019.8
2018-02-13T10:08:54.452Z,1019.76
2018-02-13T10:09:54.479Z,1019.79
2018-02-13T10:10:54.494Z,1019.77
2018-02-13T10:11:54.463Z,1019.74
2018-02-13T10:12:54.460Z,1019.74
2018-02-13T10:13:54.461Z,1019.7
2018-02-13T10:14:54.462Z,1019.64
2018-02-13T10:15:54.465Z,1019.65
2018-02-13T10:16:54.455Z,1019.66
2018-02-13T10:17:54.454Z,1019.63
2018-02-13T10:18:54.452Z,1019.59
2018-02-13T10:19:54.464Z,1019.58
2018-02-13T10:20:54.458Z,1019.51
2018-02-13T10:21:54.490Z,1019.57
2018-02-13T10:22:54.463Z,1019.53
2018-02-13T10:23:54.464Z,1019.48
2018-02-13T10:24:54.473Z,1019.47
2018-02-13T10:25:54.470Z,1019.47
2018-02-13T10:26:54.474Z,1019.43
2018-02-13T10:27:54.535Z,1019.4
2018-02-13T10:28:54.561Z,1019.42
2018-02-13T10:29:54.548Z,1019.39
2018-02-13T10:30:54.558Z,1019.34
2018-02-13T10:31:54.623Z,1019.34
2018-02-13T10:32:53.793Z,1019.32
2018-02-13T10:33:53.802Z,1019.33
2018-02-13T10:34:53.813Z,1019.35
2018-02-13T10:35:53.810Z,1019.31
2018-02-13T10:36:53.824Z,1019.3
2018-02-13T10:37:53.821Z,1019.25
2018-02-13T10:38:53.804Z,1019.24
2018-02-13T10:39:53.795Z,1019.25
2018-02-13T10:40:53.841Z,1019.27
2018-02-13T10:41:53.792Z,1019.19
2018-02-13T10:42:53.799Z,1019.2
2018-02-13T10:43:53.801Z,1019.21
2018-02-13T10:44:53.800Z,1019.19
2018-02-13T10:45:53.827Z,1019.19
2018-02-13T10:46:53.823Z,1019.16
2018-02-13T10:47:53.815Z,1019.14
2018-02-13T10:48:53.813Z,1019.09
2018-02-13T10:49:53.801Z,1019.08
2018-02-13T10:50:53.834Z,1019.08
2018-02-13T10:51:53.816Z,1019.02
2018-02-13T10:52:53.809Z,1019.04
2018-02-13T10:54:53.830Z,1019
2018-02-13T10:55:53.821Z,1018.95
2018-02-13T10:56:53.794Z,1018.95
2018-02-13T10:57:53.802Z,1018.94
2018-02-13T10:58:53.808Z,1018.94
2018-02-13T10:59:53.817Z,1018.9
2018-02-13T11:00:53.828Z,1018.85
2018-02-13T11:01:53.827Z,1018.89
2018-02-13T11:02:53.800Z,1018.85
2018-02-13T11:03:53.638Z,1018.86
2018-02-13T11:04:53.647Z,1018.84
2018-02-13T11:05:53.755Z,1018.83
2018-02-13T11:06:53.751Z,1018.79
2018-02-13T11:07:53.630Z,1018.8
2018-02-13T11:08:53.631Z,1018.77
2018-02-13T11:09:53.636Z,1018.76
2018-02-13T11:10:53.687Z,1018.76
2018-02-13T11:11:53.660Z,1018.73
2018-02-13T11:12:53.642Z,1018.74
2018-02-13T11:13:53.625Z,1018.64
2018-02-13T11:14:53.771Z,1018.64
2018-02-13T11:15:53.653Z,1018.64
2018-02-13T11:16:53.640Z,1018.63
2018-02-13T11:17:53.636Z,1018.6
2018-02-13T11:18:53.645Z,1018.54
2018-02-13T11:19:53.655Z,1018.51
2018-02-13T11:20:53.625Z,1018.51
2018-02-13T11:21:53.638Z,1018.49
2018-02-13T11:22:53.640Z,1018.47
2018-02-13T11:23:53.638Z,1018.4
2018-02-13T11:24:53.657Z,1018.42
2018-02-13T11:25:53.627Z,1018.32
2018-02-13T11:26:53.655Z,1018.26
2018-02-13T11:27:53.651Z,1018.23
2018-02-13T11:28:53.639Z,1018.2
2018-02-13T11:29:53.645Z,1018.17
2018-02-13T11:30:53.638Z,1018.11
2018-02-13T11:31:53.629Z,1018.13
2018-02-13T11:32:53.634Z,1018.02
2018-02-13T11:33:53.640Z,1018.02
2018-02-13T11:34:54.508Z,1018.04
2018-02-13T11:35:54.498Z,1018.03
2018-02-13T11:36:54.492Z,1017.99
2018-02-13T11:37:54.471Z,1017.94
2018-02-13T11:38:54.490Z,1017.9
2018-02-13T11:39:54.520Z,1017.89
2018-02-13T11:40:54.473Z,1017.87
2018-02-13T11:41:54.467Z,1017.82
2018-02-13T11:42:54.472Z,1017.8
2018-02-13T11:43:54.465Z,1017.79
2018-02-13T11:44:54.473Z,1017.73
2018-02-13T11:45:54.482Z,1017.72
2018-02-13T11:46:54.486Z,1017.69
2018-02-13T11:47:54.476Z,1017.71
2018-02-13T11:48:54.486Z,1017.69
2018-02-13T11:49:54.471Z,1017.64
2018-02-13T11:50:54.478Z,1017.63
2018-02-13T11:51:54.830Z,1017.59
2018-02-13T11:52:54.490Z,1017.54
2018-02-13T11:53:58.728Z,1017.52
2018-02-13T11:54:57.081Z,1017.57
2018-02-13T11:55:55.053Z,1017.55
2018-02-13T11:56:54.571Z,1017.52
2018-02-13T11:57:54.481Z,1017.56
2018-02-13T11:58:54.471Z,1017.53
2018-02-13T11:59:54.551Z,1017.5
2018-02-13T12:00:54.486Z,1017.45
2018-02-13T12:01:54.501Z,1017.5
2018-02-13T12:02:54.483Z,1017.47
2018-02-13T12:03:54.510Z,1017.46
2018-02-13T12:04:53.645Z,1017.48
2018-02-13T12:05:53.692Z,1017.46
2018-02-13T12:06:53.640Z,1017.42
2018-02-13T12:07:53.626Z,1017.35
2018-02-13T12:08:53.651Z,1017.36
2018-02-13T12:09:53.644Z,1017.4
2018-02-13T12:10:53.644Z,1017.34
2018-02-13T12:11:53.652Z,1017.28
2018-02-13T12:12:53.630Z,1017.34
2018-02-13T12:13:54.070Z,1017.26
2018-02-13T12:14:53.631Z,1017.28
2018-02-13T12:15:53.649Z,1017.24
2018-02-13T12:16:53.628Z,1017.21
2018-02-13T12:17:53.640Z,1017.17
2018-02-13T12:18:53.650Z,1017.13
2018-02-13T12:19:53.630Z,1017.1